臺東航空站 - ATIS

METAR RCFN 010530Z 09007KT 040V150 9999 FEW030 33/25 Q1003 NOSIG RMK A2963=

站台狀態:Online
最後更新:2018-08-15 05:45:01